Time;durP1;ratioP1;P1;durP2;ratioP2;P2;SDS_P1;SDS_P2;PMS_P1;PMS_P2;Temp;Humidity;BMP_temperature;BMP_pressure;BME280_temperature;BME280_humidity;BME280_pressure;Samples;Min_cycle;Max_cycle;Signal;HPM_P1;HPM_P2
2022/03/19 00:01:41;;;;;;;;;5.00;4.00;;;;;9.51;42.55;103343.31;5018779;28;45332;-66
2022/03/19 00:04:07;;;;;;;;;5.67;5.33;;;;;9.51;43.03;103348.72;5021029;28;45829;-67
2022/03/19 00:06:38;;;;;;;;;9.00;6.00;;;;;9.48;42.54;103338.06;5020512;28;45447;-66
2022/03/19 00:09:05;;;;;;;;;5.33;5.00;;;;;9.51;42.47;103343.31;5020796;28;45314;-67
2022/03/19 00:11:31;;;;;;;;;5.33;5.00;;;;;9.48;42.56;103343.47;5017882;28;45463;-67
2022/03/19 00:13:56;;;;;;;;;4.00;4.00;;;;;9.48;42.37;103333.50;5012062;28;45360;-68
2022/03/19 00:16:22;;;;;;;;;6.00;6.00;;;;;9.38;42.29;103321.34;5022557;28;45587;-67
2022/03/19 00:18:48;;;;;;;;;10.00;4.00;;;;;9.46;43.02;103346.28;5022020;28;46134;-67
2022/03/19 00:21:14;;;;;;;;;5.00;5.00;;;;;9.47;42.36;103341.72;5013351;28;45390;-67
2022/03/19 00:23:39;;;;;;;;;3.33;3.33;;;;;9.46;42.42;103346.28;5022631;28;45388;-67
2022/03/19 00:26:06;;;;;;;;;5.00;4.00;;;;;9.43;42.70;103345.53;5013721;28;45674;-66
2022/03/19 00:28:31;;;;;;;;;6.33;4.00;;;;;9.40;42.47;103343.00;5021391;28;47102;-68
2022/03/19 00:30:57;;;;;;;;;8.00;4.67;;;;;9.41;42.18;103348.34;5016294;28;45418;-67
2022/03/19 00:33:22;;;;;;;;;9.33;4.67;;;;;9.32;42.26;103337.94;5017870;28;45537;-65
2022/03/19 00:35:48;;;;;;;;;4.00;3.00;;;;;9.33;42.44;103347.84;5026047;28;45339;-66
2022/03/19 00:38:14;;;;;;;;;4.00;4.00;;;;;9.30;42.08;103348.88;5025692;28;46471;-67
2022/03/19 00:40:39;;;;;;;;;4.00;4.00;;;;;9.28;42.91;103337.22;5024049;28;45465;-66
2022/03/19 00:43:05;;;;;;;;;7.00;3.33;;;;;9.27;42.23;103349.03;5018528;28;45378;-66
2022/03/19 00:45:30;;;;;;;;;3.67;3.67;;;;;9.21;42.47;103346.63;5015380;28;45407;-66
2022/03/19 00:47:56;;;;;;;;;5.67;3.67;;;;;9.22;42.35;103345.66;5016880;28;45436;-66
2022/03/19 00:50:22;;;;;;;;;3.00;1.00;;;;;9.20;41.94;103342.16;5019343;28;45420;-66
2022/03/19 00:52:47;;;;;;;;;3.33;3.33;;;;;9.21;42.07;103338.47;5025514;28;45412;-66
2022/03/19 00:55:13;;;;;;;;;4.00;4.00;;;;;9.22;42.28;103336.63;5020354;28;45222;-66
2022/03/19 00:57:40;;;;;;;;;3.67;3.67;;;;;9.16;42.06;103331.53;5021596;28;46364;-66
2022/03/19 01:00:06;;;;;;;;;4.00;3.00;;;;;9.16;42.12;103334.25;5019869;28;45401;-66
2022/03/19 01:02:32;;;;;;;;;4.00;4.00;;;;;9.14;41.67;103330.72;5023844;28;45292;-66
2022/03/19 01:04:57;;;;;;;;;7.00;3.00;;;;;9.14;42.11;103328.00;5023736;28;45640;-66
2022/03/19 01:07:22;;;;;;;;;4.00;4.00;;;;;9.13;42.04;103334.41;5034829;28;47141;-66
2022/03/19 01:09:48;;;;;;;;;5.33;3.33;;;;;9.10;41.92;103327.28;5018023;28;45328;-66
2022/03/19 01:12:13;;;;;;;;;3.00;3.00;;;;;9.07;41.83;103324.72;5021084;28;45379;-66
2022/03/19 01:14:38;;;;;;;;;2.00;2.00;;;;;8.99;41.69;103318.78;5019434;28;45307;-66
2022/03/19 01:17:04;;;;;;;;;2.00;2.00;;;;;8.97;42.05;103315.31;5024706;28;46441;-67
2022/03/19 01:22:13;;;;;;;;;4.33;4.33;;;;;8.93;42.30;103314.56;5025273;28;45319;-66
2022/03/19 01:24:38;;;;;;;;;1.67;1.67;;;;;8.89;42.22;103312.97;5023616;28;45344;-66
2022/03/19 01:27:04;;;;;;;;;4.33;3.67;;;;;8.90;42.37;103319.28;5025260;28;46670;-66
2022/03/19 01:29:29;;;;;;;;;7.00;4.33;;;;;8.91;42.31;103321.03;5021394;28;45339;-66
2022/03/19 01:31:54;;;;;;;;;3.33;3.00;;;;;8.86;42.46;103317.66;5022956;28;45244;-66
2022/03/19 01:34:20;;;;;;;;;4.00;4.00;;;;;8.84;42.21;103315.00;5021497;28;45235;-66
2022/03/19 01:36:45;;;;;;;;;3.00;2.00;;;;;8.79;42.49;103310.75;5019866;28;46885;-66
2022/03/19 01:39:10;;;;;;;;;1.67;1.67;;;;;8.73;42.17;103305.66;5022835;28;45299;-66
2022/03/19 01:41:44;;;;;;;;;4.00;2.33;;;;;8.77;42.10;103309.94;5020765;28;45368;-66
2022/03/19 01:44:16;;;;;;;;;5.33;3.00;;;;;8.77;42.32;103315.38;5023798;28;45401;-66
2022/03/19 01:46:57;;;;;;;;;6.00;6.00;;;;;8.72;42.39;103302.06;5024756;28;45398;-66
2022/03/19 01:49:23;;;;;;;;;5.00;3.00;;;;;8.66;42.29;103309.59;5010073;28;45218;-66
2022/03/19 01:51:48;;;;;;;;;3.00;3.00;;;;;8.65;42.55;103302.41;5023555;28;45509;-66
2022/03/19 01:54:15;;;;;;;;;4.00;2.67;;;;;8.61;42.67;103295.41;5021081;28;45601;-66
2022/03/19 01:56:42;;;;;;;;;2.00;2.00;;;;;8.61;42.65;103298.13;5024326;28;46610;-66
2022/03/19 01:59:08;;;;;;;;;7.00;3.00;;;;;8.56;42.38;103291.06;5022892;28;45407;-66
2022/03/19 02:01:33;;;;;;;;;3.67;2.33;;;;;8.57;42.39;103291.94;5017135;28;45492;-66
2022/03/19 02:04:00;;;;;;;;;4.00;3.33;;;;;8.55;42.64;103285.72;5023322;28;45442;-66
2022/03/19 02:06:26;;;;;;;;;5.00;3.00;;;;;8.55;42.61;103286.59;5022971;28;46748;-66
2022/03/19 02:08:53;;;;;;;;;3.00;3.00;;;;;8.54;42.42;103284.88;5021868;28;45483;-66
2022/03/19 02:11:20;;;;;;;;;3.00;3.00;;;;;8.51;42.86;103281.41;5020882;28;45402;-66
2022/03/19 02:13:46;;;;;;;;;4.00;4.00;;;;;8.52;42.67;103291.31;5024554;28;45557;-66
2022/03/19 02:16:11;;;;;;;;;4.00;4.00;;;;;8.49;42.84;103286.00;5021721;28;46352;-66
2022/03/19 02:18:37;;;;;;;;;2.00;2.00;;;;;8.40;42.93;103276.50;5024591;28;45318;-66
2022/03/19 02:21:02;;;;;;;;;5.33;5.00;;;;;8.40;43.05;103281.06;5022532;28;46042;-66
2022/03/19 02:26:12;;;;;;;;;3.00;3.00;;;;;8.35;42.99;103267.72;5019751;28;45499;-66
2022/03/19 02:28:38;;;;;;;;;5.33;3.33;;;;;8.34;42.98;103270.50;5024292;28;45387;-66
2022/03/19 02:31:03;;;;;;;;;3.00;2.00;;;;;8.33;43.01;103268.75;5022128;28;45506;-66
2022/03/19 02:33:29;;;;;;;;;4.00;4.00;;;;;8.30;43.23;103261.63;5024982;28;45428;-66
2022/03/19 02:35:54;;;;;;;;;4.33;4.33;;;;;8.29;43.63;103254.44;5015663;28;46642;-66
2022/03/19 02:38:19;;;;;;;;;3.00;3.00;;;;;8.26;43.22;103257.28;5019587;28;45329;-66
2022/03/19 02:40:45;;;;;;;;;4.00;4.00;;;;;8.28;43.32;103251.78;5015343;28;45394;-66
2022/03/19 02:43:10;;;;;;;;;3.00;2.33;;;;;8.27;43.39;103250.91;5023372;28;46407;-66
2022/03/19 02:45:36;;;;;;;;;4.00;4.00;;;;;8.26;43.48;103248.25;5018362;28;46712;-66
2022/03/19 02:48:01;;;;;;;;;2.67;2.00;;;;;8.26;43.65;103256.38;5024824;28;45854;-66
2022/03/19 02:50:30;;;;;;;;;3.00;2.00;;;;;8.26;43.49;103259.97;5017676;28;45402;-67
2022/03/19 02:52:57;;;;;;;;;5.67;5.67;;;;;8.23;43.84;103256.56;5024129;28;45573;-66
2022/03/19 02:55:22;;;;;;;;;7.67;6.00;;;;;8.17;43.87;103247.78;5017233;28;46046;-66
2022/03/19 02:57:48;;;;;;;;;4.00;4.00;;;;;8.15;44.53;103243.38;5023725;28;45306;-66
2022/03/19 03:00:14;;;;;;;;;8.00;3.33;;;;;8.13;44.19;103242.56;5019768;28;45333;-66
2022/03/19 03:02:39;;;;;;;;;8.33;4.67;;;;;8.10;44.22;103235.47;5032721;28;45534;-66
2022/03/19 03:05:05;;;;;;;;;6.33;6.33;;;;;8.10;44.61;103253.56;5019417;28;46335;-66
2022/03/19 03:07:31;;;;;;;;;6.00;4.00;;;;;8.04;44.37;103257.41;5018846;28;45276;-66
2022/03/19 03:09:56;;;;;;;;;4.00;4.00;;;;;8.03;44.52;103247.53;5030954;28;45346;-64
2022/03/19 03:12:22;;;;;;;;;7.33;6.00;;;;;8.02;44.53;103253.03;5019272;28;45630;-66
2022/03/19 03:14:47;;;;;;;;;3.00;3.00;;;;;7.99;44.96;103253.16;5035283;28;47399;-66
2022/03/19 03:17:13;;;;;;;;;4.33;4.33;;;;;7.99;44.91;103251.31;5022117;28;45248;-66
2022/03/19 03:19:38;;;;;;;;;4.33;4.33;;;;;7.97;44.85;103246.91;5021671;28;45452;-66
2022/03/19 03:22:04;;;;;;;;;8.67;6.33;;;;;7.91;45.13;103242.69;5022541;28;45683;-66
2022/03/19 03:24:29;;;;;;;;;7.33;6.33;;;;;7.89;45.71;103239.16;5019942;28;45443;-66
2022/03/19 03:26:54;;;;;;;;;6.33;6.00;;;;;7.89;45.43;103241.84;5020745;28;45337;-66
2022/03/19 03:29:20;;;;;;;;;5.33;5.33;;;;;7.87;45.60;103241.06;5020703;28;45327;-66
2022/03/19 03:31:46;;;;;;;;;4.67;3.67;;;;;7.89;45.25;103238.31;5020020;28;45437;-66
2022/03/19 03:34:11;;;;;;;;;8.00;8.00;;;;;7.85;45.96;103233.97;5021211;28;45374;-66
2022/03/19 03:36:37;;;;;;;;;7.00;6.00;;;;;7.81;45.74;103233.25;5018638;28;45394;-66
2022/03/19 03:39:02;;;;;;;;;9.00;7.67;;;;;7.80;45.88;103223.38;5018922;28;46112;-66
2022/03/19 03:41:27;;;;;;;;;7.33;6.67;;;;;7.79;45.70;103229.72;5019197;28;45522;-66
2022/03/19 03:43:53;;;;;;;;;8.00;6.00;;;;;7.77;45.85;103224.38;5022310;28;46517;-66
2022/03/19 03:46:18;;;;;;;;;9.67;8.33;;;;;7.77;45.96;103232.47;5017505;28;45342;-66
2022/03/19 03:48:44;;;;;;;;;14.00;9.00;;;;;7.74;46.31;103223.66;5038648;28;45349;-66
2022/03/19 03:51:11;;;;;;;;;12.00;9.50;;;;;7.76;46.30;103214.50;5018783;28;45319;-66
2022/03/19 03:53:37;;;;;;;;;11.00;8.25;;;;;7.70;46.44;103209.34;5019152;28;47141;-66
2022/03/19 03:56:03;;;;;;;;;9.00;7.00;;;;;7.74;45.94;103207.41;5017521;28;45375;-66
2022/03/19 03:58:29;;;;;;;;;9.33;9.33;;;;;7.75;46.31;103207.31;5023049;28;45322;-66
2022/03/19 04:00:56;;;;;;;;;12.00;8.00;;;;;7.68;46.44;103213.97;5018117;28;45422;-66
2022/03/19 04:03:21;;;;;;;;;6.00;6.00;;;;;7.65;46.37;103211.41;5020104;28;46311;-66
2022/03/19 04:05:47;;;;;;;;;15.75;10.25;;;;;7.64;47.23;103220.47;5020720;28;45252;-66
2022/03/19 04:08:12;;;;;;;;;11.67;9.67;;;;;7.53;47.28;103201.13;5017990;28;45495;-66
2022/03/19 04:10:37;;;;;;;;;16.67;12.00;;;;;7.55;47.58;103209.16;5013756;28;45573;-66
2022/03/19 04:13:03;;;;;;;;;13.33;12.67;;;;;7.60;47.64;103223.38;5021739;28;46277;-66
2022/03/19 04:15:29;;;;;;;;;17.67;10.67;;;;;7.57;47.86;103223.53;5020877;28;45468;-66
2022/03/19 04:17:54;;;;;;;;;14.00;12.25;;;;;7.54;48.18;103210.13;5022537;28;45497;-66
2022/03/19 04:20:22;;;;;;;;;16.67;11.00;;;;;7.52;48.01;103209.31;5021209;28;45555;-66
2022/03/19 04:22:48;;;;;;;;;14.75;13.00;;;;;7.51;48.08;103213.84;5022459;28;45521;-66
2022/03/19 04:25:17;;;;;;;;;13.50;13.50;;;;;7.49;48.22;103215.75;5016617;28;45507;-66
2022/03/19 04:27:44;;;;;;;;;10.50;9.00;;;;;7.48;48.50;103219.38;5020380;28;45350;-66
2022/03/19 04:30:13;;;;;;;;;25.25;16.25;;;;;7.43;48.66;103213.31;5017258;28;45544;-66
2022/03/19 04:32:50;;;;;;;;;12.00;10.75;;;;;7.48;48.53;103216.69;5018973;28;48116;-66
2022/03/19 04:38:06;;;;;;;;;23.25;17.00;;;;;7.42;49.13;103219.66;5019744;28;45346;-66
2022/03/19 04:40:32;;;;;;;;;18.75;13.50;;;;;7.43;49.18;103213.31;5015117;28;45512;-66
2022/03/19 04:42:58;;;;;;;;;18.50;15.75;;;;;7.39;49.81;103208.97;5022474;28;45281;-66
2022/03/19 04:45:24;;;;;;;;;18.25;13.00;;;;;7.40;49.50;103206.22;5015710;28;45321;-66
2022/03/19 04:47:50;;;;;;;;;22.25;14.75;;;;;7.40;49.34;103211.63;5022448;28;45515;-67
2022/03/19 04:50:15;;;;;;;;;20.00;18.00;;;;;7.24;50.33;103196.13;5020200;28;45382;-66
2022/03/19 04:52:42;;;;;;;;;17.50;15.25;;;;;7.33;49.89;103210.13;5013685;28;46016;-66
2022/03/19 04:55:09;;;;;;;;;24.25;18.75;;;;;7.36;49.98;103203.72;5012572;28;45403;-66
2022/03/19 04:57:35;;;;;;;;;13.00;11.25;;;;;7.31;50.34;103203.03;5017376;28;45253;-66
2022/03/19 05:00:00;;;;;;;;;17.75;17.25;;;;;7.30;50.59;103204.00;5013662;28;45440;-66
2022/03/19 05:02:26;;;;;;;;;26.50;21.25;;;;;7.29;50.44;103191.41;5018801;28;45333;-66
2022/03/19 05:04:52;;;;;;;;;20.00;17.25;;;;;7.27;50.68;103202.28;5018730;28;45274;-66
2022/03/19 05:07:19;;;;;;;;;18.75;17.00;;;;;7.27;51.18;103199.59;5031770;28;45419;-66
2022/03/19 05:12:31;;;;;;;;;29.50;21.75;;;;;7.23;51.02;103203.34;5015048;28;45798;-66
2022/03/19 05:14:56;;;;;;;;;22.75;19.00;;;;;7.20;51.19;103202.63;5019120;28;45385;-66
2022/03/19 05:17:21;;;;;;;;;24.00;21.00;;;;;7.21;51.62;103209.81;5014336;28;45430;-66
2022/03/19 05:19:46;;;;;;;;;25.75;19.75;;;;;7.18;52.25;103207.22;5020411;28;45293;-66
2022/03/19 05:22:12;;;;;;;;;24.75;22.50;;;;;7.17;51.75;103202.75;5015170;28;45566;-66
2022/03/19 05:24:37;;;;;;;;;30.75;21.25;;;;;7.17;52.16;103211.75;5021232;28;47890;-66
2022/03/19 05:27:03;;;;;;;;;23.00;20.50;;;;;7.17;52.35;103208.16;5022852;28;45244;-66
2022/03/19 05:29:31;;;;;;;;;28.00;21.50;;;;;7.14;52.22;103208.31;5021870;28;45427;-66
2022/03/19 05:31:56;;;;;;;;;28.25;22.25;;;;;7.10;52.52;103209.38;5020045;28;46915;-66
2022/03/19 05:34:31;;;;;;;;;27.75;21.00;;;;;7.09;53.01;103211.19;5022833;28;45413;-66
2022/03/19 05:37:01;;;;;;;;;28.00;25.00;;;;;7.11;52.38;103219.25;5023912;28;45338;-66
2022/03/19 05:39:31;;;;;;;;;29.75;25.75;;;;;7.03;53.04;103206.94;5017977;28;45511;-66
2022/03/19 05:41:56;;;;;;;;;34.75;28.75;;;;;7.04;53.41;103211.41;5035146;28;47217;-66
2022/03/19 05:44:23;;;;;;;;;22.75;20.25;;;;;7.03;53.35;103216.88;5022388;28;45169;-66
2022/03/19 05:46:48;;;;;;;;;25.25;23.00;;;;;6.95;53.68;103219.88;5021081;28;45330;-66
2022/03/19 05:49:14;;;;;;;;;33.25;26.50;;;;;6.98;53.75;103216.19;5023311;28;45450;-66
2022/03/19 05:51:39;;;;;;;;;35.75;28.25;;;;;6.95;53.99;103209.06;5020193;28;46953;-66
2022/03/19 05:54:05;;;;;;;;;30.25;25.75;;;;;6.98;53.96;103214.38;5022739;28;45386;-66
2022/03/19 05:56:31;;;;;;;;;31.00;26.50;;;;;6.97;54.20;103214.44;5017110;28;45548;-66
2022/03/19 05:58:56;;;;;;;;;26.50;23.00;;;;;6.94;54.27;103218.13;5022678;28;45310;-66
2022/03/19 06:01:26;;;;;;;;;28.50;24.50;;;;;6.98;54.08;103218.88;5018804;28;47021;-66
2022/03/19 06:03:52;;;;;;;;;33.25;26.50;;;;;6.97;54.11;103214.44;5022453;28;45340;-66
2022/03/19 06:06:17;;;;;;;;;33.50;25.25;;;;;6.97;54.51;103223.41;5007134;28;45340;-67
2022/03/19 06:08:43;;;;;;;;;32.50;26.50;;;;;6.94;54.85;103218.13;5023081;28;45265;-66
2022/03/19 06:11:08;;;;;;;;;46.75;34.00;;;;;6.99;55.12;103226.06;5020795;28;45952;-66
2022/03/19 06:13:33;;;;;;;;;30.75;17.25;;;;;6.97;54.82;103215.31;5022827;28;45261;-66
2022/03/19 06:15:59;;;;;;;;;36.25;28.75;;;;;7.03;54.77;103214.16;5021566;28;45323;-66
2022/03/19 06:18:24;;;;;;;;;32.50;27.75;;;;;7.05;54.30;103209.56;5025027;28;45416;-66
2022/03/19 06:20:50;;;;;;;;;43.25;34.50;;;;;7.03;55.23;103215.03;5022220;28;47123;-66
2022/03/19 06:23:15;;;;;;;;;32.25;31.00;;;;;7.07;55.26;103221.22;5024193;28;45311;-67
2022/03/19 06:25:40;;;;;;;;;37.75;32.75;;;;;7.12;55.01;103223.72;5018926;28;45305;-67
2022/03/19 06:28:06;;;;;;;;;39.50;29.50;;;;;7.17;55.14;103227.97;5024478;28;45458;-67
2022/03/19 06:30:37;;;;;;;;;34.00;30.75;;;;;7.22;55.60;103228.66;5019763;28;48487;-66
2022/03/19 06:33:03;;;;;;;;;40.75;36.50;;;;;7.24;55.65;103228.56;5022933;28;45481;-65
2022/03/19 06:38:13;;;;;;;;;42.75;38.00;;;;;7.39;55.25;103236.00;5024270;28;45447;-65
2022/03/19 06:40:38;;;;;;;;;44.00;34.25;;;;;7.46;55.13;103237.50;5021918;28;48010;-65
2022/03/19 06:43:04;;;;;;;;;39.25;34.00;;;;;7.75;55.18;103228.97;5022643;28;45368;-66
2022/03/19 06:45:29;;;;;;;;;41.25;37.50;;;;;8.40;53.61;103206.06;5017559;28;45466;-66
2022/03/19 06:47:54;;;;;;;;;44.00;38.25;;;;;8.34;53.22;103214.47;5024386;28;45305;-66
2022/03/19 06:50:20;;;;;;;;;47.00;38.75;;;;;8.21;53.39;103210.59;5017405;28;46434;-66
2022/03/19 06:52:45;;;;;;;;;47.50;39.25;;;;;8.17;53.76;103208.97;5023306;28;45419;-66
2022/03/19 06:55:10;;;;;;;;;48.50;38.75;;;;;8.16;53.47;103207.22;5020565;28;45606;-66
2022/03/19 06:57:36;;;;;;;;;39.50;33.25;;;;;8.15;53.89;103200.03;5020358;28;45376;-66
2022/03/19 07:00:01;;;;;;;;;49.25;35.50;;;;;8.20;53.89;103211.53;5021443;28;45646;-66
2022/03/19 07:02:27;;;;;;;;;51.50;40.50;;;;;8.24;53.91;103205.03;5020664;28;45236;-66
2022/03/19 07:04:52;;;;;;;;;47.75;39.25;;;;;8.31;53.72;103201.13;5021742;28;45365;-66
2022/03/19 07:07:18;;;;;;;;;46.25;36.25;;;;;8.46;53.73;103208.50;5021432;28;45415;-66
2022/03/19 07:09:43;;;;;;;;;53.00;41.75;;;;;8.77;52.83;103202.41;5020204;28;45589;-66
2022/03/19 07:12:11;;;;;;;;;54.25;42.25;;;;;9.05;52.43;103209.16;5021838;28;45288;-66
2022/03/19 07:14:39;;;;;;;;;57.75;44.00;;;;;9.09;52.13;103206.19;5020697;28;45241;-66
2022/03/19 07:17:05;;;;;;;;;46.50;39.75;;;;;9.06;52.70;103206.34;5015351;28;45522;-66
2022/03/19 07:19:30;;;;;;;;;52.50;40.75;;;;;9.10;52.62;103213.38;5021035;28;45525;-66
2022/03/19 07:21:56;;;;;;;;;54.00;42.25;;;;;9.17;52.10;103203.97;5031280;28;45589;-66
2022/03/19 07:24:22;;;;;;;;;58.25;42.50;;;;;9.24;52.71;103215.38;5021866;28;45398;-66
2022/03/19 07:26:47;;;;;;;;;46.75;40.00;;;;;9.34;51.97;103206.69;5019211;28;45466;-66
2022/03/19 07:29:15;;;;;;;;;57.25;45.00;;;;;9.34;52.08;103198.56;5020837;28;45542;-66
2022/03/19 07:31:41;;;;;;;;;49.25;42.00;;;;;9.48;51.55;103203.25;5018432;28;45403;-66
2022/03/19 07:34:06;;;;;;;;;56.75;44.75;;;;;9.51;51.71;103207.63;5021079;28;45220;-66
2022/03/19 07:36:33;;;;;;;;;56.00;44.00;;;;;9.57;51.75;103201.88;5018995;28;45221;-66
2022/03/19 07:38:58;;;;;;;;;52.50;41.25;;;;;9.52;51.87;103199.41;5021447;28;46140;-66
2022/03/19 07:44:07;;;;;;;;;49.00;35.00;;;;;9.57;51.69;103212.75;5020095;28;45299;-66
2022/03/19 07:46:35;;;;;;;;;60.25;45.50;;;;;9.65;51.84;103216.78;5018690;28;45263;-66
2022/03/19 07:49:01;;;;;;;;;58.50;46.25;;;;;9.66;51.89;103195.94;5021788;28;45362;-67
2022/03/19 07:51:28;;;;;;;;;62.00;43.75;;;;;9.66;51.92;103204.97;5017854;28;45381;-67
2022/03/19 07:53:54;;;;;;;;;57.00;44.75;;;;;9.75;52.06;103206.31;5021878;28;45383;-67
2022/03/19 07:56:19;;;;;;;;;54.25;43.00;;;;;9.85;51.56;103206.69;5014976;28;45205;-66
2022/03/19 07:58:50;;;;;;;;;56.75;44.75;;;;;9.99;51.22;103204.97;5021858;28;45554;-67
2022/03/19 08:01:17;;;;;;;;;56.75;43.75;;;;;10.11;51.28;103204.28;5019759;28;45387;-67
2022/03/19 08:03:43;;;;;;;;;54.75;42.75;;;;;10.22;50.76;103195.56;5034733;28;45343;-66
2022/03/19 08:06:09;;;;;;;;;58.25;45.00;;;;;10.46;50.72;103202.31;5018329;28;45506;-67
2022/03/19 08:08:34;;;;;;;;;60.25;45.00;;;;;10.68;50.22;103199.22;5022201;28;46070;-67
2022/03/19 08:11:01;;;;;;;;;56.75;46.50;;;;;10.97;49.91;103202.06;5010459;28;45705;-67
2022/03/19 08:13:27;;;;;;;;;54.50;44.25;;;;;11.08;49.17;103202.31;5018338;28;45279;-67
2022/03/19 08:15:52;;;;;;;;;63.25;47.00;;;;;11.24;49.55;103201.31;5025096;28;45651;-66
2022/03/19 08:18:18;;;;;;;;;60.25;46.50;;;;;11.42;48.73;103202.03;5022216;28;45585;-67
2022/03/19 08:20:45;;;;;;;;;52.75;42.75;;;;;11.54;48.05;103197.69;5013622;28;45483;-66
2022/03/19 08:23:11;;;;;;;;;62.50;49.25;;;;;11.67;47.74;103191.38;5007799;28;45339;-67
2022/03/19 08:25:38;;;;;;;;;63.25;44.50;;;;;11.81;48.02;103189.66;5017236;28;45639;-67
2022/03/19 08:28:04;;;;;;;;;68.75;49.25;;;;;11.97;47.48;103187.72;5017701;28;47024;-67
2022/03/19 08:30:29;;;;;;;;;67.00;48.50;;;;;12.07;46.99;103177.94;5013839;28;45358;-67
2022/03/19 08:32:54;;;;;;;;;59.75;46.75;;;;;12.20;46.68;103187.06;5022508;28;45390;-67
2022/03/19 08:35:20;;;;;;;;;62.25;47.00;;;;;12.29;46.89;103181.03;5016089;28;45568;-66
2022/03/19 08:37:46;;;;;;;;;61.50;44.50;;;;;12.42;45.74;103181.97;5022020;28;45389;-67
2022/03/19 08:40:15;;;;;;;;;61.25;47.25;;;;;12.53;45.88;103172.22;5020092;28;45295;-67
2022/03/19 08:42:42;;;;;;;;;57.00;42.75;;;;;12.70;45.66;103181.03;5016271;28;45339;-67
2022/03/19 08:45:08;;;;;;;;;63.25;48.00;;;;;12.81;45.24;103183.03;5020239;28;45330;-68
2022/03/19 08:47:33;;;;;;;;;55.75;44.25;;;;;12.96;45.09;103178.38;5021668;28;46466;-67
2022/03/19 08:49:59;;;;;;;;;55.50;42.25;;;;;13.16;44.78;103177.91;5015436;28;45373;-68
2022/03/19 08:52:26;;;;;;;;;63.50;46.75;;;;;13.29;44.72;103169.75;5021637;28;45609;-68
2022/03/19 08:54:52;;;;;;;;;64.00;49.25;;;;;13.35;43.97;103177.53;5017155;28;47823;-67
2022/03/19 08:57:18;;;;;;;;;64.25;50.50;;;;;13.44;44.00;103172.25;5021347;28;48309;-68
2022/03/19 08:59:44;;;;;;;;;67.25;49.75;;;;;13.72;44.03;103173.06;5020964;28;45345;-67
2022/03/19 09:02:09;;;;;;;;;70.00;55.00;;;;;13.89;43.44;103162.63;5024788;28;45422;-67
2022/03/19 09:04:36;;;;;;;;;58.25;47.00;;;;;14.03;42.37;103169.81;5022340;28;45564;-67
2022/03/19 09:07:01;;;;;;;;;55.75;44.50;;;;;14.09;42.72;103171.28;5023554;28;45569;-67
2022/03/19 09:09:26;;;;;;;;;62.25;48.25;;;;;14.14;42.52;103169.94;5022834;28;45316;-68
2022/03/19 09:11:52;;;;;;;;;60.50;47.25;;;;;14.31;42.32;103169.56;5024819;28;45461;-68
2022/03/19 09:14:19;;;;;;;;;58.50;46.25;;;;;14.49;42.16;103172.81;5022554;28;45532;-67
2022/03/19 09:16:45;;;;;;;;;65.50;50.75;;;;;14.54;41.54;103167.00;5017144;28;46304;-68
2022/03/19 09:19:10;;;;;;;;;59.25;47.50;;;;;14.68;41.74;103169.59;5023077;28;45462;-68
2022/03/19 09:21:36;;;;;;;;;59.75;47.25;;;;;14.71;40.76;103162.00;5018490;28;45397;-67
2022/03/19 09:24:02;;;;;;;;;62.25;49.00;;;;;14.78;40.86;103166.00;5024452;28;45638;-68
2022/03/19 09:26:28;;;;;;;;;62.25;46.50;;;;;14.80;40.98;103158.56;5023178;28;47196;-68
2022/03/19 09:28:53;;;;;;;;;57.50;46.00;;;;;14.93;40.72;103154.88;5024168;28;45352;-68
2022/03/19 09:31:19;;;;;;;;;65.00;49.25;;;;;15.12;40.49;103147.00;5014558;28;45320;-67
2022/03/19 09:33:45;;;;;;;;;65.75;50.00;;;;;15.32;40.32;103149.03;5021078;28;45390;-67
2022/03/19 09:36:11;;;;;;;;;63.25;47.50;;;;;15.49;39.72;103136.72;5018421;28;46571;-67
2022/03/19 09:38:36;;;;;;;;;58.75;46.00;;;;;15.67;39.96;103132.56;5037216;28;45584;-67
2022/03/19 09:41:02;;;;;;;;;61.00;48.00;;;;;15.82;39.58;103114.00;5018271;28;45379;-67
2022/03/19 09:43:31;;;;;;;;;60.50;49.50;;;;;16.08;38.58;103136.50;5025445;28;45322;-67
2022/03/19 09:45:56;;;;;;;;;64.25;47.25;;;;;16.12;38.32;103111.47;5022272;28;47347;-67
2022/03/19 09:48:22;;;;;;;;;58.50;46.00;;;;;16.12;36.96;103132.53;5016669;28;45323;-67
2022/03/19 09:50:51;;;;;;;;;59.50;46.50;;;;;16.21;37.12;103126.28;5018478;28;45418;-67
2022/03/19 09:53:19;;;;;;;;;61.00;47.00;;;;;16.61;36.04;103118.34;5020070;28;45430;-67
2022/03/19 09:55:45;;;;;;;;;59.75;48.00;;;;;16.81;35.63;103120.25;5019111;28;48695;-67
2022/03/19 09:58:12;;;;;;;;;58.00;44.00;;;;;16.83;35.26;103123.75;5022335;28;45367;-67
2022/03/19 10:00:37;;;;;;;;;57.00;45.50;;;;;16.84;35.75;103108.16;5020240;28;45418;-67
2022/03/19 10:03:07;;;;;;;;;56.75;45.00;;;;;17.01;34.79;103116.69;5021291;28;45328;-67
2022/03/19 10:08:38;;;;;;;;;59.25;47.00;;;;;17.03;34.49;103111.91;5022097;28;45377;-67
2022/03/19 10:11:05;;;;;;;;;58.75;46.00;;;;;16.83;34.32;103111.91;5020637;28;45445;-67
2022/03/19 10:13:30;;;;;;;;;58.00;44.75;;;;;16.83;34.72;103111.91;5024838;28;45305;-66
2022/03/19 10:15:56;;;;;;;;;61.75;48.75;;;;;16.96;33.75;103094.22;5013645;28;45402;-67
2022/03/19 10:18:29;;;;;;;;;47.50;38.25;;;;;17.13;34.63;103088.13;5024408;28;45471;-67
2022/03/19 10:20:58;;;;;;;;;59.25;45.75;;;;;17.19;33.64;103091.34;5015488;28;45421;-67
2022/03/19 10:23:36;;;;;;;;;55.75;45.50;;;;;17.16;33.81;103087.00;5024307;28;45475;-67
2022/03/19 10:26:01;;;;;;;;;60.50;48.50;;;;;17.19;33.88;103080.34;5021277;28;48037;-66
2022/03/19 10:28:31;;;;;;;;;53.50;43.25;;;;;17.26;33.48;103079.69;5039190;28;45421;-66
2022/03/19 10:30:57;;;;;;;;;57.50;46.25;;;;;17.24;32.61;103062.44;5016090;28;45401;-66
2022/03/19 10:33:28;;;;;;;;;51.25;41.75;;;;;17.21;33.01;103070.09;5023610;28;45434;-66
2022/03/19 10:36:07;;;;;;;;;60.25;47.25;;;;;17.40;32.79;103062.84;5017345;28;46226;-66
2022/03/19 10:38:40;;;;;;;;;57.25;45.00;;;;;17.50;32.11;103062.91;5016409;28;45379;-66
2022/03/19 10:41:06;;;;;;;;;54.00;43.00;;;;;17.44;32.58;103060.69;5017070;28;45280;-67
2022/03/19 10:43:32;;;;;;;;;56.50;44.00;;;;;17.55;32.71;103060.59;5024116;28;45272;-67
2022/03/19 10:45:58;;;;;;;;;51.50;42.00;;;;;17.95;31.85;103066.16;5017193;28;47878;-67
2022/03/19 10:48:26;;;;;;;;;56.50;44.25;;;;;18.24;31.98;103057.94;5021842;28;45465;-67
2022/03/19 10:50:53;;;;;;;;;55.75;44.75;;;;;18.43;31.13;103057.09;5017402;28;45392;-67
2022/03/19 10:53:20;;;;;;;;;60.75;48.00;;;;;18.48;31.00;103041.88;5018903;28;45352;-67
2022/03/19 10:55:46;;;;;;;;;55.25;44.00;;;;;18.60;30.22;103046.28;5017861;28;46401;-67
2022/03/19 10:58:12;;;;;;;;;49.50;40.00;;;;;18.41;30.63;103054.47;5020115;28;45769;-67
2022/03/19 11:00:37;;;;;;;;;50.75;42.25;;;;;18.28;30.32;103059.38;5018245;28;45351;-66
2022/03/19 11:03:17;;;;;;;;;56.00;41.75;;;;;18.01;29.70;103042.69;5019693;28;45298;-66
2022/03/19 11:05:45;;;;;;;;;55.25;43.75;;;;;18.08;30.14;103042.00;5020455;28;45491;-66
2022/03/19 11:08:12;;;;;;;;;54.25;42.75;;;;;18.25;30.11;103038.56;5036140;28;45338;-66
2022/03/19 11:10:38;;;;;;;;;57.75;45.00;;;;;18.33;29.51;103042.47;5021089;28;45334;-66
2022/03/19 11:13:06;;;;;;;;;55.50;44.25;;;;;18.42;29.28;103044.34;5023153;28;45554;-67
2022/03/19 11:15:35;;;;;;;;;52.25;41.50;;;;;18.39;29.17;103029.00;5016464;28;45395;-67
2022/03/19 11:18:05;;;;;;;;;53.50;42.50;;;;;18.48;29.91;103022.59;5019940;28;45294;-67
2022/03/19 11:20:30;;;;;;;;;55.00;43.25;;;;;18.48;29.29;103021.75;5016546;28;45424;-67
2022/03/19 11:22:59;;;;;;;;;54.75;42.50;;;;;18.47;29.04;103012.63;5021070;28;45386;-68
2022/03/19 11:25:27;;;;;;;;;54.50;44.00;;;;;18.49;28.63;103020.72;5017435;28;45381;-67
2022/03/19 11:28:08;;;;;;;;;58.00;42.75;;;;;18.52;28.20;103018.56;5022561;28;45251;-67
2022/03/19 11:30:35;;;;;;;;;50.75;40.75;;;;;18.54;27.81;103016.53;5034472;28;45504;-66
2022/03/19 11:33:07;;;;;;;;;55.50;43.50;;;;;18.59;28.36;103006.00;5010317;28;45517;-66
2022/03/19 11:35:34;;;;;;;;;44.00;34.50;;;;;18.46;27.98;102996.25;5018510;28;48037;-67